Time;durP1;ratioP1;P1;durP2;ratioP2;P2;SDS_P1;SDS_P2;PMS_P1;PMS_P2;Temp;Humidity;BMP_temperature;BMP_pressure;BME280_temperature;BME280_humidity;BME280_pressure;Samples;Min_cycle;Max_cycle;Signal;HPM_P1;HPM_P2
2022/01/07 00:02:06;;;;;;;66.60;23.00;;;;;;;-5.15;74.72;99150.95;108281;1274;22693;-72
2022/01/07 00:04:35;;;;;;;60.60;21.00;;;;;;;-5.17;74.62;99148.39;108264;1274;22572;-72
2022/01/07 00:07:04;;;;;;;64.20;22.40;;;;;;;-5.21;74.77;99147.02;108241;1274;22568;-73
2022/01/07 00:09:31;;;;;;;60.60;24.40;;;;;;;-5.24;74.29;99148.00;108240;1274;22558;-72
2022/01/07 00:11:58;;;;;;;58.60;24.00;;;;;;;-5.24;74.32;99148.52;108234;1274;27566;-72
2022/01/07 00:14:24;;;;;;;61.10;23.00;;;;;;;-5.25;74.95;99158.01;108240;1274;22581;-73
2022/01/07 00:16:51;;;;;;;68.90;24.50;;;;;;;-5.28;75.33;99154.10;108227;1274;22559;-73
2022/01/07 00:19:19;;;;;;;67.80;26.50;;;;;;;-5.32;75.57;99155.10;108259;1274;22554;-72
2022/01/07 00:21:46;;;;;;;75.80;28.20;;;;;;;-5.34;75.68;99154.05;108264;1274;22594;-73
2022/01/07 00:24:14;;;;;;;72.20;28.10;;;;;;;-5.36;75.31;99153.87;108243;1274;22569;-72
2022/01/07 00:26:41;;;;;;;70.90;27.40;;;;;;;-5.38;75.20;99150.63;108248;1274;22592;-72
2022/01/07 00:29:08;;;;;;;67.80;27.00;;;;;;;-5.42;75.14;99151.45;108263;1274;24373;-72
2022/01/07 00:31:34;;;;;;;65.80;26.80;;;;;;;-5.45;75.12;99155.17;108239;1274;22681;-72
2022/01/07 00:34:01;;;;;;;61.50;25.40;;;;;;;-5.50;74.81;99152.59;108222;1274;22551;-72
2022/01/07 00:36:28;;;;;;;58.50;23.60;;;;;;;-5.54;74.72;99149.67;108208;1274;22749;-72
2022/01/07 00:38:55;;;;;;;72.80;25.10;;;;;;;-5.57;74.88;99148.98;108253;1274;24681;-72
2022/01/07 00:41:22;;;;;;;61.10;25.00;;;;;;;-5.55;74.89;99152.73;108254;1274;22553;-72
2022/01/07 00:43:50;;;;;;;65.40;26.30;;;;;;;-5.52;75.00;99153.92;108241;1274;22632;-72
2022/01/07 00:46:19;;;;;;;76.50;26.00;;;;;;;-5.52;75.38;99155.63;108232;1274;25347;-72
2022/01/07 00:48:46;;;;;;;65.20;26.50;;;;;;;-5.55;75.66;99159.18;108218;1274;24236;-72
2022/01/07 00:51:13;;;;;;;73.20;28.90;;;;;;;-5.57;75.53;99162.22;108257;1274;22557;-72
2022/01/07 00:53:41;;;;;;;74.80;27.60;;;;;;;-5.60;75.48;99160.48;108279;1274;22560;-72
2022/01/07 00:56:08;;;;;;;70.00;26.50;;;;;;;-5.64;75.32;99164.87;108244;1274;22562;-72
2022/01/07 00:58:35;;;;;;;68.70;26.70;;;;;;;-5.69;75.29;99169.25;108224;1274;22561;-72
2022/01/07 01:01:03;;;;;;;74.90;27.80;;;;;;;-5.73;75.31;99168.54;108285;1274;22654;-71
2022/01/07 01:03:30;;;;;;;81.90;28.90;;;;;;;-5.77;74.96;99167.30;108453;1274;22590;-71
2022/01/07 01:06:00;;;;;;;74.10;27.80;;;;;;;-5.82;74.80;99171.69;108477;1274;25478;-72
2022/01/07 01:08:27;;;;;;;70.30;28.00;;;;;;;-5.88;74.93;99171.14;108476;1274;26580;-71
2022/01/07 01:10:55;;;;;;;70.60;27.70;;;;;;;-5.92;74.91;99170.11;108481;1274;24568;-72
2022/01/07 01:13:22;;;;;;;88.90;31.70;;;;;;;-5.92;74.45;99170.45;108476;1274;22556;-74
2022/01/07 01:15:49;;;;;;;81.00;31.00;;;;;;;-5.92;74.91;99164.34;108063;1274;518292;-71
2022/01/07 01:18:16;;;;;;;90.00;29.40;;;;;;;-5.93;75.50;99162.63;108499;1274;25426;-73
2022/01/07 01:20:43;;;;;;;81.10;28.00;;;;;;;-5.98;75.76;99162.59;108457;1274;22568;-73
2022/01/07 01:23:10;;;;;;;81.70;30.90;;;;;;;-6.01;75.79;99169.01;108443;1274;22583;-73
2022/01/07 01:25:37;;;;;;;87.20;31.90;;;;;;;-6.05;75.53;99168.45;108421;1274;22556;-73
2022/01/07 01:28:04;;;;;;;80.00;29.10;;;;;;;-6.08;75.56;99165.87;108466;1274;22555;-74
2022/01/07 01:30:35;;;;;;;85.40;29.30;;;;;;;-6.11;75.37;99162.47;108469;1274;22557;-75
2022/01/07 01:33:02;;;;;;;75.00;27.70;;;;;;;-6.15;75.22;99159.20;108452;1274;22550;-74
2022/01/07 01:35:30;;;;;;;79.40;29.70;;;;;;;-6.18;75.12;99159.85;108485;1274;22541;-74
2022/01/07 01:37:57;;;;;;;73.80;29.40;;;;;;;-6.23;74.94;99157.59;108430;1274;22561;-74
2022/01/07 01:40:24;;;;;;;80.10;33.90;;;;;;;-6.23;75.09;99154.02;108409;1274;22571;-74
2022/01/07 01:42:52;;;;;;;79.50;32.10;;;;;;;-6.22;75.15;99153.20;108458;1274;25489;-75
2022/01/07 01:45:21;;;;;;;79.70;28.60;;;;;;;-6.22;75.74;99151.67;108471;1274;22578;-74
2022/01/07 01:47:48;;;;;;;75.70;28.50;;;;;;;-6.25;76.16;99151.14;108462;1274;22575;-77
2022/01/07 01:50:15;;;;;;;83.10;30.10;;;;;;;-6.30;76.21;99145.67;108451;1274;22561;-75
2022/01/07 01:52:48;;;;;;;85.60;30.20;;;;;;;-6.34;75.90;99148.84;108459;1274;22555;-76
2022/01/07 01:55:18;;;;;;;75.60;30.10;;;;;;;-6.37;75.92;99144.91;108430;1274;22867;-73
2022/01/07 01:57:45;;;;;;;76.80;28.40;;;;;;;-6.40;75.48;99140.80;108462;1274;22625;-74
2022/01/07 02:00:13;;;;;;;77.20;28.70;;;;;;;-6.45;75.46;99140.59;108484;1274;22689;-75
2022/01/07 02:02:40;;;;;;;70.60;26.10;;;;;;;-6.50;75.54;99142.56;108452;1274;22614;-74
2022/01/07 02:05:08;;;;;;;69.90;25.20;;;;;;;-6.54;75.39;99141.19;108466;1274;22561;-74
2022/01/07 02:07:37;;;;;;;69.40;24.90;;;;;;;-6.57;75.14;99144.36;108465;1274;22538;-74
2022/01/07 02:10:07;;;;;;;80.30;27.50;;;;;;;-6.56;74.96;99145.57;108444;1274;22731;-75
2022/01/07 02:12:34;;;;;;;80.30;27.00;;;;;;;-6.55;75.59;99146.42;108471;1274;22591;-74
2022/01/07 02:15:01;;;;;;;70.10;24.80;;;;;;;-6.55;76.40;99145.75;108485;1273;22763;-73
2022/01/07 02:17:28;;;;;;;61.90;23.50;;;;;;;-6.57;76.47;99146.38;108452;1274;22694;-73
2022/01/07 02:19:56;;;;;;;70.40;23.80;;;;;;;-6.60;76.72;99152.45;108455;1274;22564;-78
2022/01/07 02:22:24;;;;;;;64.90;23.60;;;;;;;-6.62;76.19;99157.52;108541;1274;22549;-67
2022/01/07 02:24:52;;;;;;;69.30;25.10;;;;;;;-6.66;76.00;99161.52;108516;1274;22537;-72
2022/01/07 02:27:20;;;;;;;89.50;30.80;;;;;;;-6.70;75.85;99157.41;108426;1274;22702;-72
2022/01/07 02:29:51;;;;;;;108.50;35.90;;;;;;;-6.74;76.03;99156.19;108297;1274;22623;-72
2022/01/07 02:32:19;;;;;;;118.30;40.60;;;;;;;-6.79;75.58;99154.60;108258;1274;25461;-71
2022/01/07 02:34:48;;;;;;;132.00;49.90;;;;;;;-6.83;75.98;99155.07;108272;1274;24450;-70
2022/01/07 02:37:15;;;;;;;156.90;58.10;;;;;;;-6.82;75.50;99155.59;108240;1274;22625;-72
2022/01/07 02:39:42;;;;;;;151.30;50.60;;;;;;;-6.81;75.87;99154.42;108267;1274;22565;-72
2022/01/07 02:42:09;;;;;;;152.20;50.10;;;;;;;-6.81;76.46;99159.50;108207;1274;22563;-72
2022/01/07 02:44:36;;;;;;;151.20;55.50;;;;;;;-6.82;77.01;99159.83;108283;1274;22569;-72
2022/01/07 02:47:03;;;;;;;151.90;52.50;;;;;;;-6.83;76.92;99161.34;108245;1274;22579;-72
2022/01/07 02:49:30;;;;;;;150.30;50.40;;;;;;;-6.82;76.79;99162.36;108225;1274;22541;-72
2022/01/07 02:51:57;;;;;;;150.20;48.60;;;;;;;-6.83;76.49;99159.64;108274;1274;22558;-72
2022/01/07 02:54:24;;;;;;;126.00;43.30;;;;;;;-6.84;76.18;99158.27;108274;1274;22598;-72
2022/01/07 02:56:51;;;;;;;132.00;42.80;;;;;;;-6.85;76.26;99154.88;108252;1274;25467;-72
2022/01/07 02:59:19;;;;;;;119.90;42.00;;;;;;;-6.85;76.23;99157.23;108243;1274;22561;-72
2022/01/07 03:01:46;;;;;;;117.20;39.50;;;;;;;-6.86;76.03;99158.91;108227;1274;25371;-72
2022/01/07 03:04:13;;;;;;;128.70;44.60;;;;;;;-6.84;76.09;99155.89;108690;1274;23356;-72
2022/01/07 03:06:41;;;;;;;110.70;40.50;;;;;;;-6.84;76.38;99154.73;108226;1274;22558;-72
2022/01/07 03:09:08;;;;;;;101.70;38.90;;;;;;;-6.85;77.07;99151.31;108265;1274;22606;-71
2022/01/07 03:11:35;;;;;;;124.10;43.40;;;;;;;-6.88;77.20;99147.70;108219;1274;22569;-72
2022/01/07 03:14:02;;;;;;;129.10;44.10;;;;;;;-6.90;77.05;99142.96;108256;1274;22580;-72
2022/01/07 03:16:29;;;;;;;129.80;44.60;;;;;;;-6.91;76.78;99140.91;108225;1274;22544;-72
2022/01/07 03:18:57;;;;;;;133.70;45.60;;;;;;;-6.93;76.85;99141.73;108229;1274;22565;-72
2022/01/07 03:21:24;;;;;;;129.70;45.20;;;;;;;-6.95;76.51;99141.53;108237;1274;24497;-71
2022/01/07 03:23:51;;;;;;;123.50;45.70;;;;;;;-6.97;76.33;99145.73;108221;1274;22553;-72
2022/01/07 03:26:18;;;;;;;121.30;43.80;;;;;;;-6.99;76.37;99143.87;108230;1274;22888;-72
2022/01/07 03:28:46;;;;;;;121.60;43.30;;;;;;;-7.01;76.04;99145.02;108217;1274;22609;-72
2022/01/07 03:31:13;;;;;;;121.90;43.20;;;;;;;-7.02;75.87;99145.67;108209;1274;22650;-72
2022/01/07 03:33:40;;;;;;;127.10;46.60;;;;;;;-6.98;75.98;99143.34;108281;1274;26731;-72
2022/01/07 03:36:07;;;;;;;124.10;44.40;;;;;;;-6.94;76.41;99137.14;108243;1274;22535;-72
2022/01/07 03:38:34;;;;;;;124.20;42.50;;;;;;;-6.92;76.73;99132.77;108275;1274;22561;-72
2022/01/07 03:41:02;;;;;;;127.90;43.10;;;;;;;-6.92;77.21;99133.27;108220;1274;22550;-72
2022/01/07 03:43:29;;;;;;;146.40;48.30;;;;;;;-6.93;77.08;99133.27;108230;1274;22570;-75
2022/01/07 03:45:56;;;;;;;147.60;48.20;;;;;;;-6.93;77.07;99135.11;108258;1274;24097;-72
2022/01/07 03:48:23;;;;;;;147.40;49.80;;;;;;;-6.94;76.98;99132.56;108253;1274;22557;-72
2022/01/07 03:50:50;;;;;;;144.80;48.40;;;;;;;-6.95;76.67;99132.04;108235;1274;22544;-72
2022/01/07 03:53:17;;;;;;;148.80;47.00;;;;;;;-6.97;76.41;99134.05;108236;1274;22577;-72
2022/01/07 03:55:45;;;;;;;128.80;45.00;;;;;;;-6.99;76.34;99134.73;108209;1274;22546;-74
2022/01/07 03:58:12;;;;;;;139.50;45.70;;;;;;;-7.00;76.10;99133.35;108226;1274;22568;-74
2022/01/07 04:00:40;;;;;;;130.60;46.60;;;;;;;-7.02;75.97;99136.19;108252;1274;22562;-76
2022/01/07 04:03:14;;;;;;;143.70;52.10;;;;;;;-6.99;76.12;99131.16;108247;1274;22553;-73
2022/01/07 04:05:41;;;;;;;138.90;47.30;;;;;;;-6.96;76.41;99135.76;108235;1274;24207;-73
2022/01/07 04:08:09;;;;;;;124.80;43.70;;;;;;;-6.97;76.97;99138.96;108301;1274;22554;-72
2022/01/07 04:10:36;;;;;;;119.20;42.90;;;;;;;-6.98;76.85;99145.23;108250;1274;25391;-73
2022/01/07 04:13:04;;;;;;;124.30;43.90;;;;;;;-7.00;76.99;99148.75;108278;1274;22554;-74
2022/01/07 04:15:32;;;;;;;130.10;44.50;;;;;;;-7.03;77.01;99150.58;108230;1274;22577;-74
2022/01/07 04:18:00;;;;;;;119.20;42.10;;;;;;;-7.06;76.80;99147.98;108206;1274;25701;-74
2022/01/07 04:20:29;;;;;;;122.00;43.50;;;;;;;-7.10;76.35;99152.02;108218;1274;22554;-73
2022/01/07 04:22:57;;;;;;;107.00;39.90;;;;;;;-7.12;76.45;99157.23;108250;1274;22564;-73
2022/01/07 04:25:25;;;;;;;100.60;38.70;;;;;;;-7.13;76.07;99157.03;108219;1274;25228;-74
2022/01/07 04:28:01;;;;;;;103.20;36.30;;;;;;;-7.15;76.27;99160.05;108174;1274;23475;-74
2022/01/07 04:30:32;;;;;;;106.50;37.90;;;;;;;-7.14;76.20;99164.98;108197;1274;22564;-73
2022/01/07 04:32:59;;;;;;;99.60;38.60;;;;;;;-7.07;76.19;99163.89;108194;1274;23827;-73
2022/01/07 04:35:28;;;;;;;86.10;34.80;;;;;;;-7.01;76.68;99163.13;108211;1274;22560;-74
2022/01/07 04:37:55;;;;;;;70.10;27.50;;;;;;;-6.95;77.18;99163.71;108206;1274;25346;-74
2022/01/07 04:40:22;;;;;;;57.60;23.50;;;;;;;-6.87;77.54;99167.72;108172;1274;22608;-73
2022/01/07 04:42:50;;;;;;;63.10;21.50;;;;;;;-6.77;78.17;99169.20;108202;1274;22560;-73
2022/01/07 04:45:17;;;;;;;50.10;21.90;;;;;;;-6.67;78.57;99171.02;108206;1274;25467;-73
2022/01/07 04:47:45;;;;;;;58.00;21.40;;;;;;;-6.60;78.54;99173.96;108190;1274;24182;-73
2022/01/07 04:50:16;;;;;;;44.10;18.20;;;;;;;-6.57;78.72;99171.81;108213;1274;22597;-73
2022/01/07 04:52:44;;;;;;;57.60;23.40;;;;;;;-6.54;78.28;99172.52;108198;1274;25244;-73
2022/01/07 04:55:18;;;;;;;55.00;21.80;;;;;;;-6.53;77.96;99167.11;108232;1274;24393;-73
2022/01/07 04:57:45;;;;;;;56.70;21.20;;;;;;;-6.53;77.61;99158.81;108205;1274;25429;-73
2022/01/07 05:00:15;;;;;;;53.20;19.00;;;;;;;-6.54;77.46;99154.07;108195;1274;22553;-72
2022/01/07 05:02:42;;;;;;;50.90;16.90;;;;;;;-6.52;77.32;99154.73;108191;1274;22553;-72
2022/01/07 05:05:10;;;;;;;50.40;17.40;;;;;;;-6.48;77.08;99153.27;108196;1274;24260;-72
2022/01/07 05:07:37;;;;;;;44.60;15.80;;;;;;;-6.46;77.04;99153.13;108220;1274;22557;-71
2022/01/07 05:10:05;;;;;;;41.80;15.90;;;;;;;-6.45;76.97;99153.48;108210;1274;22564;-72
2022/01/07 05:12:32;;;;;;;48.00;16.80;;;;;;;-6.45;76.93;99147.88;108196;1274;22582;-71
2022/01/07 05:15:00;;;;;;;54.80;21.20;;;;;;;-6.40;76.84;99144.36;108234;1274;26681;-72
2022/01/07 05:17:27;;;;;;;38.50;17.10;;;;;;;-6.34;76.90;99139.52;108216;1274;22580;-71
2022/01/07 05:19:54;;;;;;;41.70;16.50;;;;;;;-6.30;77.51;99132.44;108230;1274;22619;-71
2022/01/07 05:22:21;;;;;;;39.80;16.20;;;;;;;-6.28;77.64;99128.57;108224;1274;22547;-71
2022/01/07 05:24:48;;;;;;;48.00;17.30;;;;;;;-6.24;77.64;99132.15;108219;1274;22557;-72
2022/01/07 05:27:14;;;;;;;47.50;16.60;;;;;;;-6.21;77.41;99126.59;108218;1274;22553;-71
2022/01/07 05:29:41;;;;;;;46.70;18.00;;;;;;;-6.16;77.33;99125.27;108264;1274;24202;-72
2022/01/07 05:32:08;;;;;;;60.60;23.50;;;;;;;-6.13;77.23;99124.63;108221;1274;22763;-72
2022/01/07 05:34:35;;;;;;;74.20;27.50;;;;;;;-6.08;77.12;99125.35;108195;1274;22576;-73
2022/01/07 05:37:02;;;;;;;81.90;29.40;;;;;;;-6.04;76.87;99127.42;108229;1274;22552;-72
2022/01/07 05:39:29;;;;;;;87.70;31.80;;;;;;;-6.00;76.81;99125.60;108204;1274;22625;-73
2022/01/07 05:41:58;;;;;;;85.30;30.90;;;;;;;-5.90;76.95;99122.11;108240;1274;22574;-72
2022/01/07 05:44:24;;;;;;;72.50;28.30;;;;;;;-5.81;77.26;99119.10;108223;1274;23029;-73
2022/01/07 05:46:51;;;;;;;49.00;19.60;;;;;;;-5.74;77.96;99111.52;108234;1274;22574;-74
2022/01/07 05:49:18;;;;;;;46.50;18.10;;;;;;;-5.68;78.08;99108.00;108225;1274;22553;-72
2022/01/07 05:51:45;;;;;;;36.90;14.90;;;;;;;-5.64;77.74;99106.33;108262;1274;22546;-72
2022/01/07 05:54:13;;;;;;;34.50;13.60;;;;;;;-5.60;77.55;99101.77;108269;1274;25387;-72
2022/01/07 05:56:40;;;;;;;35.00;14.30;;;;;;;-5.57;77.28;99093.31;108257;1274;24127;-72
2022/01/07 05:59:06;;;;;;;31.20;12.50;;;;;;;-5.54;77.11;99090.78;108265;1274;23077;-71
2022/01/07 06:01:33;;;;;;;32.70;12.90;;;;;;;-5.52;76.99;99091.64;108263;1274;25248;-72
2022/01/07 06:04:00;;;;;;;36.10;12.30;;;;;;;-5.50;76.72;99094.88;108248;1274;25518;-72
2022/01/07 06:06:27;;;;;;;30.20;12.70;;;;;;;-5.49;76.70;99097.44;108201;1274;22728;-72
2022/01/07 06:08:54;;;;;;;31.70;14.00;;;;;;;-5.49;76.60;99091.33;108232;1274;22680;-71
2022/01/07 06:11:21;;;;;;;36.20;15.10;;;;;;;-5.45;76.65;99087.27;108257;1274;22585;-72
2022/01/07 06:13:48;;;;;;;35.60;13.60;;;;;;;-5.47;77.07;99087.61;108275;1274;22554;-72
2022/01/07 06:16:15;;;;;;;41.70;14.80;;;;;;;-5.47;77.59;99081.50;108207;1274;22555;-72
2022/01/07 06:18:57;;;;;;;41.70;16.80;;;;;;;-5.49;77.55;99078.09;108203;1274;25315;-71
2022/01/07 06:21:25;;;;;;;45.10;17.30;;;;;;;-5.50;77.42;99083.85;108216;1274;24016;-71
2022/01/07 06:23:53;;;;;;;38.90;17.30;;;;;;;-5.52;77.20;99082.47;108393;1274;22570;-71
2022/01/07 06:26:20;;;;;;;46.40;17.10;;;;;;;-5.56;76.83;99090.94;108222;1274;22628;-70
2022/01/07 06:28:47;;;;;;;46.80;18.30;;;;;;;-5.61;76.67;99094.46;108237;1274;22563;-71
2022/01/07 06:31:14;;;;;;;48.80;17.10;;;;;;;-5.64;76.47;99098.37;108432;1274;24259;-74
2022/01/07 06:33:41;;;;;;;46.90;16.10;;;;;;;-5.66;76.43;99093.26;108405;1274;25493;-73
2022/01/07 06:36:08;;;;;;;42.80;16.00;;;;;;;-5.68;76.13;99092.91;108418;1274;22559;-74
2022/01/07 06:38:35;;;;;;;40.20;13.80;;;;;;;-5.65;76.10;99089.03;108420;1274;22554;-73
2022/01/07 06:41:02;;;;;;;46.90;16.60;;;;;;;-5.63;76.13;99089.70;108457;1274;22598;-73
2022/01/07 06:43:29;;;;;;;44.30;16.60;;;;;;;-5.61;76.01;99089.54;108500;1274;22597;-74
2022/01/07 06:45:56;;;;;;;41.90;17.20;;;;;;;-5.54;76.02;99091.47;108450;1274;22574;-76
2022/01/07 06:48:23;;;;;;;39.80;16.80;;;;;;;-5.45;76.36;99089.31;108443;1274;22625;-74
2022/01/07 06:50:50;;;;;;;48.00;17.20;;;;;;;-5.40;77.10;99097.33;108428;1274;22572;-76
2022/01/07 06:53:17;;;;;;;49.10;18.70;;;;;;;-5.37;76.96;99097.34;108430;1274;24225;-74
2022/01/07 06:55:44;;;;;;;36.20;15.50;;;;;;;-5.35;76.73;99093.61;108456;1274;22567;-74
2022/01/07 06:58:11;;;;;;;41.20;17.40;;;;;;;-5.35;76.29;99094.28;108452;1274;22540;-74
2022/01/07 07:00:38;;;;;;;46.60;16.20;;;;;;;-5.33;76.35;99093.45;108398;1274;22544;-75
2022/01/07 07:03:05;;;;;;;46.20;16.90;;;;;;;-5.31;76.12;99090.08;108439;1274;22538;-74
2022/01/07 07:05:32;;;;;;;53.00;19.20;;;;;;;-5.28;76.04;99089.25;108452;1274;22619;-74
2022/01/07 07:07:58;;;;;;;47.70;16.90;;;;;;;-5.27;75.75;99089.58;108440;1274;22603;-75
2022/01/07 07:10:26;;;;;;;54.50;22.60;;;;;;;-5.27;75.48;99092.45;108432;1274;22545;-74
2022/01/07 07:12:53;;;;;;;59.10;23.60;;;;;;;-5.26;75.38;99092.63;108444;1274;22691;-74
2022/01/07 07:15:20;;;;;;;41.70;19.60;;;;;;;-5.26;75.33;99096.70;108389;1274;25362;-74
2022/01/07 07:17:48;;;;;;;36.00;16.40;;;;;;;-5.26;75.20;99102.14;108221;1274;25282;-75
2022/01/07 07:20:15;;;;;;;45.40;21.70;;;;;;;-5.21;75.14;99104.23;108218;1274;22549;-74
2022/01/07 07:22:42;;;;;;;55.80;26.10;;;;;;;-5.15;75.93;99105.09;108209;1274;22622;-75
2022/01/07 07:25:09;;;;;;;43.80;19.30;;;;;;;-5.08;76.62;99106.83;108270;1274;22625;-74
2022/01/07 07:27:36;;;;;;;61.80;25.80;;;;;;;-5.04;76.56;99108.20;108209;1274;22555;-73
2022/01/07 07:30:09;;;;;;;52.90;21.80;;;;;;;-5.02;76.30;99108.73;108214;1274;23231;-72
2022/01/07 07:32:36;;;;;;;39.70;16.80;;;;;;;-5.00;75.98;99113.14;108258;1274;24258;-73
2022/01/07 07:36:27;;;;;;;56.40;21.90;;;;;;;-4.99;75.88;99116.04;108166;1274;22539;-73
2022/01/07 07:37:51;;;;;;;43.50;19.20;;;;;;;-4.95;75.76;99108.59;108201;1274;22538;-73
2022/01/07 07:40:18;;;;;;;53.80;22.50;;;;;;;-4.92;75.35;99103.33;108197;1274;22636;-73
2022/01/07 07:42:45;;;;;;;37.10;15.60;;;;;;;-4.87;75.22;99098.42;108202;1274;22734;-73
2022/01/07 07:45:13;;;;;;;40.30;19.70;;;;;;;-4.83;75.12;99095.38;108190;1274;26684;-73
2022/01/07 07:47:41;;;;;;;49.40;20.50;;;;;;;-4.79;74.87;99097.26;108217;1274;22635;-74
2022/01/07 07:50:08;;;;;;;47.50;20.80;;;;;;;-4.76;74.72;99099.15;108207;1273;22634;-73
2022/01/07 07:52:35;;;;;;;37.20;16.70;;;;;;;-4.72;75.19;99100.85;108255;1274;23358;-73
2022/01/07 07:55:03;;;;;;;34.30;14.10;;;;;;;-4.71;74.89;99095.59;108266;1274;22627;-73
2022/01/07 07:57:29;;;;;;;39.20;14.00;;;;;;;-4.68;74.86;99094.24;108207;1274;22537;-73
2022/01/07 07:59:56;;;;;;;37.50;15.70;;;;;;;-4.63;74.78;99092.89;108250;1274;22571;-73
2022/01/07 08:02:23;;;;;;;41.10;15.80;;;;;;;-4.57;75.40;99095.11;108307;1274;22561;-74
2022/01/07 08:04:50;;;;;;;49.90;20.10;;;;;;;-4.52;75.77;99100.57;108238;1274;22535;-73
2022/01/07 08:07:17;;;;;;;40.10;18.30;;;;;;;-4.51;75.86;99102.61;108275;1274;22624;-73
2022/01/07 08:09:45;;;;;;;63.00;25.40;;;;;;;-4.47;75.49;99104.83;108264;1274;24221;-74
2022/01/07 08:12:20;;;;;;;53.90;24.70;;;;;;;-4.44;74.91;99107.21;108181;1274;25388;-73
2022/01/07 08:17:33;;;;;;;43.00;16.90;;;;;;;-4.33;74.36;99102.65;108217;1274;22556;-73
2022/01/07 08:20:00;;;;;;;39.70;15.60;;;;;;;-4.29;74.31;99099.42;108244;1274;24352;-73
2022/01/07 08:22:27;;;;;;;41.90;15.80;;;;;;;-4.26;73.87;99095.69;108245;1274;22556;-74
2022/01/07 08:24:54;;;;;;;42.60;17.80;;;;;;;-4.21;74.16;99094.34;108274;1274;22567;-76
2022/01/07 08:27:22;;;;;;;44.90;17.30;;;;;;;-4.17;73.66;99094.67;108175;1272;22810;-73
2022/01/07 08:29:50;;;;;;;36.00;15.30;;;;;;;-4.12;73.48;99091.96;108201;1274;22570;-73
2022/01/07 08:35:04;;;;;;;41.80;15.70;;;;;;;-4.02;72.86;99086.86;108226;1272;22540;-73
2022/01/07 08:37:31;;;;;;;35.00;12.50;;;;;;;-3.98;73.10;99081.58;108222;1274;22556;-74
2022/01/07 08:39:58;;;;;;;45.20;16.40;;;;;;;-3.93;72.78;99083.80;108156;1274;22700;-73
2022/01/07 08:42:26;;;;;;;35.50;13.50;;;;;;;-3.89;72.49;99083.30;108209;1274;22702;-74
2022/01/07 08:44:54;;;;;;;30.40;12.80;;;;;;;-3.84;72.24;99080.39;108178;1274;24089;-74
2022/01/07 08:47:25;;;;;;;47.90;17.90;;;;;;;-3.77;72.33;99078.35;108237;1274;23147;-74
2022/01/07 08:49:53;;;;;;;42.20;15.80;;;;;;;-3.68;72.34;99072.73;108234;1274;22542;-74
2022/01/07 08:52:20;;;;;;;50.10;17.90;;;;;;;-3.57;72.97;99069.97;108205;1274;22627;-74
2022/01/07 08:54:52;;;;;;;38.40;15.10;;;;;;;-3.50;72.96;99073.36;108210;1274;22690;-75
2022/01/07 08:57:21;;;;;;;34.90;14.90;;;;;;;-3.45;72.68;99070.46;108205;1274;22591;-75
2022/01/07 08:59:49;;;;;;;45.00;18.00;;;;;;;-3.39;72.39;99077.94;108211;1274;25388;-74
2022/01/07 09:02:16;;;;;;;57.70;22.10;;;;;;;-3.33;72.68;99084.92;108216;1274;22589;-73
2022/01/07 09:04:43;;;;;;;42.60;15.60;;;;;;;-3.27;71.62;99088.98;108222;1274;22553;-74
2022/01/07 09:07:09;;;;;;;35.40;12.70;;;;;;;-3.21;70.84;99094.59;108212;1274;22735;-74
2022/01/07 09:09:36;;;;;;;40.90;15.00;;;;;;;-3.17;70.66;99096.63;108223;1274;22654;-74
2022/01/07 09:12:05;;;;;;;59.90;20.60;;;;;;;-3.14;70.26;99099.36;108250;1274;22593;-74
2022/01/07 09:14:32;;;;;;;44.70;17.90;;;;;;;-3.11;69.79;99099.66;108712;1273;22664;-73
2022/01/07 09:16:59;;;;;;;43.40;14.50;;;;;;;-3.09;69.05;99092.84;108217;1274;22556;-75
2022/01/07 09:19:28;;;;;;;34.40;14.40;;;;;;;-3.05;68.14;99087.73;108181;1274;22576;-73
2022/01/07 09:21:56;;;;;;;35.60;14.60;;;;;;;-3.01;68.86;99084.98;108219;1274;22581;-73
2022/01/07 09:24:26;;;;;;;31.00;12.10;;;;;;;-2.98;68.38;99087.20;108195;1274;22558;-73
2022/01/07 09:26:53;;;;;;;24.10;10.10;;;;;;;-2.95;68.07;99082.73;108233;1274;23042;-77
2022/01/07 09:29:23;;;;;;;38.40;13.20;;;;;;;-2.89;68.32;99084.10;108199;1274;22544;-76
2022/01/07 09:31:51;;;;;;;29.50;11.90;;;;;;;-2.80;68.79;99078.41;108211;1274;22662;-74
2022/01/07 09:34:18;;;;;;;39.80;11.90;;;;;;;-2.74;69.13;99080.94;108244;1274;23373;-75
2022/01/07 09:36:45;;;;;;;48.40;16.50;;;;;;;-2.70;68.52;99080.92;108225;1274;22704;-73
2022/01/07 09:39:13;;;;;;;56.90;18.40;;;;;;;-2.67;67.90;99076.30;108204;1274;22547;-73
2022/01/07 09:41:40;;;;;;;57.30;17.70;;;;;;;-2.60;68.53;99073.56;108278;1274;22559;-74
2022/01/07 09:44:11;;;;;;;42.60;14.10;;;;;;;-2.56;68.00;99073.17;108265;1274;22543;-74
2022/01/07 09:46:39;;;;;;;55.90;17.20;;;;;;;-2.50;67.69;99070.58;108300;1274;22701;-72
2022/01/07 09:49:07;;;;;;;78.40;21.60;;;;;;;-2.43;67.80;99075.67;108226;1274;25462;-73
2022/01/07 09:51:37;;;;;;;59.70;17.80;;;;;;;-2.41;67.16;99070.02;108202;1271;22614;-73
2022/01/07 09:54:06;;;;;;;44.80;15.50;;;;;;;-2.36;67.13;99069.14;108247;1274;22582;-73
2022/01/07 09:56:33;;;;;;;54.10;17.60;;;;;;;-2.32;67.08;99066.04;108248;1274;22572;-73
2022/01/07 09:59:04;;;;;;;50.50;17.20;;;;;;;-2.26;67.00;99058.66;108206;1274;22556;-75
2022/01/07 10:01:55;;;;;;;48.30;17.00;;;;;;;-2.19;66.60;99059.64;108210;1274;22778;-74
2022/01/07 10:04:26;;;;;;;32.00;12.50;;;;;;;-2.12;65.94;99057.70;108211;1274;25341;-74
2022/01/07 10:07:12;;;;;;;30.40;13.00;;;;;;;-2.04;66.89;99053.88;108259;1274;22642;-74
2022/01/07 10:09:41;;;;;;;25.10;10.00;;;;;;;-1.98;65.44;99055.38;108233;1274;22555;-76
2022/01/07 10:12:08;;;;;;;27.50;11.20;;;;;;;-1.89;65.43;99051.72;108261;1274;22566;-73
2022/01/07 10:14:38;;;;;;;25.10;10.30;;;;;;;-1.84;65.56;99043.30;108237;1274;22570;-75
2022/01/07 10:17:05;;;;;;;22.80;9.90;;;;;;;-1.77;65.68;99039.81;108183;1274;22888;-75
2022/01/07 10:19:37;;;;;;;20.80;8.80;;;;;;;-1.70;64.30;99034.13;108196;1274;22562;-74
2022/01/07 10:22:08;;;;;;;29.30;12.80;;;;;;;-1.65;62.44;99032.70;108439;1274;23448;-74
2022/01/07 10:24:56;;;;;;;27.30;11.00;;;;;;;-1.60;64.09;99029.94;108225;1274;23381;-76
2022/01/07 10:27:34;;;;;;;137.80;47.70;;;;;;;-1.53;62.10;99017.73;108216;1274;22573;-75
2022/01/07 10:30:14;;;;;;;73.90;32.80;;;;;;;-1.47;62.95;99015.11;108235;1274;22614;-74
2022/01/07 10:32:41;;;;;;;50.60;26.00;;;;;;;-1.41;62.92;99012.47;108202;1274;22562;-75
2022/01/07 10:35:19;;;;;;;63.10;32.60;;;;;;;-1.35;62.59;99013.08;108206;1274;22551;-73
2022/01/07 10:37:52;;;;;;;57.00;24.50;;;;;;;-1.31;62.52;99008.08;108191;1274;22641;-75
2022/01/07 10:40:19;;;;;;;;;;;;;;;-1.28;62.45;99000.20;108196;1274;23425;-76
2022/01/07 10:42:46;;;;;;;29.00;12.70;;;;;;;-1.24;60.83;98998.26;108241;1271;22557;-77
2022/01/07 10:45:13;;;;;;;44.50;18.90;;;;;;;-1.19;61.48;98989.66;108239;1274;25262;-74
2022/01/07 10:47:40;;;;;;;37.50;14.20;;;;;;;-1.14;61.60;98982.77;108228;1274;22635;-74
2022/01/07 10:50:20;;;;;;;26.30;10.40;;;;;;;-1.10;61.49;98983.74;108216;1274;22623;-75
2022/01/07 10:52:47;;;;;;;27.90;10.90;;;;;;;-1.01;60.45;98983.61;108229;1274;22625;-76
2022/01/07 10:55:19;;;;;;;31.00;13.00;;;;;;;-0.94;59.26;98986.60;108246;1274;22666;-76
2022/01/07 10:57:51;;;;;;;26.20;13.00;;;;;;;-0.89;57.28;98977.30;108430;1274;22555;-76
2022/01/07 11:00:21;;;;;;;26.40;12.00;;;;;;;-0.82;58.25;98965.57;108428;1274;24429;-74
2022/01/07 11:02:48;;;;;;;29.90;12.10;;;;;;;-0.75;58.33;98966.33;108419;1274;22572;-75
2022/01/07 11:05:15;;;;;;;21.40;10.60;;;;;;;-0.69;59.16;98962.13;108359;1274;24522;-74
2022/01/07 11:07:43;;;;;;;23.20;9.50;;;;;;;-0.63;56.89;98962.89;108431;1274;22596;-75
2022/01/07 11:10:10;;;;;;;26.20;10.70;;;;;;;-0.56;57.75;98966.38;108271;1274;22696;-75
2022/01/07 11:12:37;;;;;;;18.70;8.20;;;;;;;-0.52;56.24;98963.23;108511;1274;22644;-78
2022/01/07 11:15:08;;;;;;;28.20;12.80;;;;;;;-0.46;56.84;98960.09;109189;1274;22592;-75
2022/01/07 11:17:36;;;;;;;28.70;13.10;;;;;;;-0.40;56.75;98953.46;108370;1274;22547;-75
2022/01/07 11:20:05;;;;;;;20.50;8.60;;;;;;;-0.32;55.20;98950.42;108439;1274;25329;-76